Terminal Aerodrome Forecast
Issued by NWS

Home | Current Version | Previous Version | Text Only | Print | Product List | Glossary On
Versions: 1 2 3 4 5 6 7 8 9 10 11 12 13 14 15 16 17 18 19 20 21 22 23 24 25 26 27
000
FTUS42 KJAX 061809 AAA
TAFCRG
TAF AMD
KCRG 061809Z 0618/0718 02012G21KT 1SM -DZ BR OVC003
     FM062100 01010KT 6SM BR OVC015
     FM070600 01010KT P6SM BKN250=

USA.gov is the U.S. government's official web portal to all federal, state and local government web resources and services.